sensor_id;sensor_type;location;lat;lon;timestamp;pressure;altitude;pressure_sealevel;temperature;humidity
73558;BME280;61829;53.286;10.434;2022-12-29T00:01:57;99960.75;;;7.08;100.00
73558;BME280;61829;53.286;10.434;2022-12-29T00:04:22;99956.03;;;7.10;100.00
73558;BME280;61829;53.286;10.434;2022-12-29T00:06:49;99955.84;;;7.11;100.00
73558;BME280;61829;53.286;10.434;2022-12-29T00:09:16;99953.63;;;7.15;100.00
73558;BME280;61829;53.286;10.434;2022-12-29T00:11:42;99958.81;;;7.16;100.00
73558;BME280;61829;53.286;10.434;2022-12-29T00:14:11;99956.16;;;7.16;100.00
73558;BME280;61829;53.286;10.434;2022-12-29T00:16:57;99946.91;;;7.19;100.00
73558;BME280;61829;53.286;10.434;2022-12-29T00:19:23;99947.72;;;7.19;100.00
73558;BME280;61829;53.286;10.434;2022-12-29T00:22:10;99929.59;;;7.22;100.00
73558;BME280;61829;53.286;10.434;2022-12-29T00:24:55;99926.59;;;7.25;100.00
73558;BME280;61829;53.286;10.434;2022-12-29T00:27:32;99927.56;;;7.24;100.00
73558;BME280;61829;53.286;10.434;2022-12-29T00:30:18;99919.53;;;7.24;100.00
73558;BME280;61829;53.286;10.434;2022-12-29T00:33:17;99916.47;;;7.27;100.00
73558;BME280;61829;53.286;10.434;2022-12-29T00:38:32;99914.47;;;7.29;100.00
73558;BME280;61829;53.286;10.434;2022-12-29T00:41:19;99902.72;;;7.30;100.00
73558;BME280;61829;53.286;10.434;2022-12-29T00:44:05;99909.94;;;7.29;100.00
73558;BME280;61829;53.286;10.434;2022-12-29T00:46:36;99912.22;;;7.32;100.00
73558;BME280;61829;53.286;10.434;2022-12-29T00:49:05;99914.91;;;7.32;100.00
73558;BME280;61829;53.286;10.434;2022-12-29T00:51:49;99906.03;;;7.32;100.00
73558;BME280;61829;53.286;10.434;2022-12-29T00:54:16;99909.56;;;7.32;100.00
73558;BME280;61829;53.286;10.434;2022-12-29T00:56:42;99901.97;;;7.36;100.00
73558;BME280;61829;53.286;10.434;2022-12-29T00:59:10;99906.97;;;7.39;100.00
73558;BME280;61829;53.286;10.434;2022-12-29T01:01:37;99908.25;;;7.43;100.00
73558;BME280;61829;53.286;10.434;2022-12-29T01:04:04;99895.69;;;7.43;100.00
73558;BME280;61829;53.286;10.434;2022-12-29T01:06:30;99907.88;;;7.46;100.00
73558;BME280;61829;53.286;10.434;2022-12-29T01:08:56;99893.66;;;7.46;100.00
73558;BME280;61829;53.286;10.434;2022-12-29T01:11:40;99891.13;;;7.44;100.00
73558;BME280;61829;53.286;10.434;2022-12-29T01:14:07;99899.84;;;7.46;100.00
73558;BME280;61829;53.286;10.434;2022-12-29T01:16:33;99903.53;;;7.45;100.00
73558;BME280;61829;53.286;10.434;2022-12-29T01:18:59;99904.16;;;7.47;100.00
73558;BME280;61829;53.286;10.434;2022-12-29T01:21:25;99888.06;;;7.47;100.00
73558;BME280;61829;53.286;10.434;2022-12-29T01:23:51;99887.91;;;7.49;100.00
73558;BME280;61829;53.286;10.434;2022-12-29T01:26:18;99885.06;;;7.50;100.00
73558;BME280;61829;53.286;10.434;2022-12-29T01:28:44;99871.28;;;7.53;100.00
73558;BME280;61829;53.286;10.434;2022-12-29T01:31:13;99872.91;;;7.54;100.00
73558;BME280;61829;53.286;10.434;2022-12-29T01:33:40;99877.91;;;7.57;100.00
73558;BME280;61829;53.286;10.434;2022-12-29T01:36:12;99868.81;;;7.58;100.00
73558;BME280;61829;53.286;10.434;2022-12-29T01:38:39;99851.53;;;7.61;100.00
73558;BME280;61829;53.286;10.434;2022-12-29T01:41:15;99869.09;;;7.63;100.00
73558;BME280;61829;53.286;10.434;2022-12-29T01:48:41;99851.63;;;7.68;100.00
73558;BME280;61829;53.286;10.434;2022-12-29T01:51:08;99844.19;;;7.70;100.00
73558;BME280;61829;53.286;10.434;2022-12-29T01:53:35;99842.59;;;7.75;100.00
73558;BME280;61829;53.286;10.434;2022-12-29T01:56:05;99846.75;;;7.78;100.00
73558;BME280;61829;53.286;10.434;2022-12-29T01:58:45;99849.28;;;7.79;100.00
73558;BME280;61829;53.286;10.434;2022-12-29T02:01:12;99842.69;;;7.82;100.00
73558;BME280;61829;53.286;10.434;2022-12-29T02:03:38;99856.72;;;7.84;100.00
73558;BME280;61829;53.286;10.434;2022-12-29T02:06:16;99846.47;;;7.87;100.00
73558;BME280;61829;53.286;10.434;2022-12-29T02:08:46;99851.44;;;7.91;100.00
73558;BME280;61829;53.286;10.434;2022-12-29T02:11:13;99838.69;;;7.93;100.00
73558;BME280;61829;53.286;10.434;2022-12-29T02:13:39;99829.59;;;7.94;100.00
73558;BME280;61829;53.286;10.434;2022-12-29T02:19:44;99826.91;;;7.94;100.00
73558;BME280;61829;53.286;10.434;2022-12-29T02:30:38;99835.84;;;8.01;100.00
73558;BME280;61829;53.286;10.434;2022-12-29T02:41:32;99814.25;;;8.09;100.00
73558;BME280;61829;53.286;10.434;2022-12-29T02:44:13;99816.75;;;8.10;100.00
73558;BME280;61829;53.286;10.434;2022-12-29T02:47:22;99807.00;;;8.09;100.00
73558;BME280;61829;53.286;10.434;2022-12-29T02:52:25;99815.53;;;8.13;100.00
73558;BME280;61829;53.286;10.434;2022-12-29T02:54:54;99808.94;;;8.16;100.00
73558;BME280;61829;53.286;10.434;2022-12-29T02:59:48;99804.19;;;8.18;100.00
73558;BME280;61829;53.286;10.434;2022-12-29T03:14:14;99785.47;;;8.24;100.00
73558;BME280;61829;53.286;10.434;2022-12-29T03:17:28;99787.94;;;8.26;100.00
73558;BME280;61829;53.286;10.434;2022-12-29T03:20:03;99781.56;;;8.27;100.00
73558;BME280;61829;53.286;10.434;2022-12-29T03:22:31;99777.84;;;8.28;100.00
73558;BME280;61829;53.286;10.434;2022-12-29T03:27:49;99764.03;;;8.31;100.00
73558;BME280;61829;53.286;10.434;2022-12-29T03:30:17;99767.53;;;8.31;100.00
73558;BME280;61829;53.286;10.434;2022-12-29T03:32:46;99764.44;;;8.28;100.00
73558;BME280;61829;53.286;10.434;2022-12-29T03:35:16;99753.06;;;8.26;100.00
73558;BME280;61829;53.286;10.434;2022-12-29T03:37:59;99753.69;;;8.28;99.98
73558;BME280;61829;53.286;10.434;2022-12-29T03:40:29;99757.59;;;8.25;99.94
73558;BME280;61829;53.286;10.434;2022-12-29T03:42:57;99754.34;;;8.30;99.55
73558;BME280;61829;53.286;10.434;2022-12-29T03:45:24;99757.03;;;8.30;99.89
73558;BME280;61829;53.286;10.434;2022-12-29T03:47:51;99742.56;;;8.31;99.91
73558;BME280;61829;53.286;10.434;2022-12-29T03:50:19;99740.91;;;8.30;99.87
73558;BME280;61829;53.286;10.434;2022-12-29T03:52:45;99730.78;;;8.32;99.33
73558;BME280;61829;53.286;10.434;2022-12-29T03:55:11;99727.09;;;8.33;99.55
73558;BME280;61829;53.286;10.434;2022-12-29T03:57:37;99718.84;;;8.35;99.32
73558;BME280;61829;53.286;10.434;2022-12-29T04:00:05;99718.00;;;8.34;99.66
73558;BME280;61829;53.286;10.434;2022-12-29T04:02:31;99726.28;;;8.32;99.54
73558;BME280;61829;53.286;10.434;2022-12-29T04:04:58;99725.25;;;8.33;99.43
73558;BME280;61829;53.286;10.434;2022-12-29T04:07:24;99730.63;;;8.33;99.59
73558;BME280;61829;53.286;10.434;2022-12-29T04:09:50;99735.97;;;8.33;99.69
73558;BME280;61829;53.286;10.434;2022-12-29T04:12:16;99718.00;;;8.34;99.64
73558;BME280;61829;53.286;10.434;2022-12-29T04:14:42;99711.81;;;8.33;100.00
73558;BME280;61829;53.286;10.434;2022-12-29T04:17:08;99709.56;;;8.37;99.96
73558;BME280;61829;53.286;10.434;2022-12-29T04:19:34;99709.19;;;8.40;99.98
73558;BME280;61829;53.286;10.434;2022-12-29T04:22:00;99701.78;;;8.42;100.00
73558;BME280;61829;53.286;10.434;2022-12-29T04:24:26;99718.53;;;8.44;100.00
73558;BME280;61829;53.286;10.434;2022-12-29T04:26:52;99719.13;;;8.46;100.00
73558;BME280;61829;53.286;10.434;2022-12-29T04:29:19;99716.44;;;8.46;100.00
73558;BME280;61829;53.286;10.434;2022-12-29T04:31:45;99710.25;;;8.46;100.00
73558;BME280;61829;53.286;10.434;2022-12-29T04:34:11;99703.25;;;8.45;100.00
73558;BME280;61829;53.286;10.434;2022-12-29T04:36:37;99700.75;;;8.43;100.00
73558;BME280;61829;53.286;10.434;2022-12-29T04:39:04;99702.41;;;8.44;100.00
73558;BME280;61829;53.286;10.434;2022-12-29T04:41:30;99699.91;;;8.43;100.00
73558;BME280;61829;53.286;10.434;2022-12-29T04:43:57;99693.31;;;8.45;100.00
73558;BME280;61829;53.286;10.434;2022-12-29T04:46:24;99708.78;;;8.43;100.00
73558;BME280;61829;53.286;10.434;2022-12-29T04:52:02;99698.47;;;8.40;100.00
73558;BME280;61829;53.286;10.434;2022-12-29T04:54:28;99691.59;;;8.38;100.00
73558;BME280;61829;53.286;10.434;2022-12-29T04:56:54;99694.69;;;8.35;100.00
73558;BME280;61829;53.286;10.434;2022-12-29T04:59:20;99682.94;;;8.36;100.00
73558;BME280;61829;53.286;10.434;2022-12-29T05:01:46;99681.25;;;8.35;100.00
73558;BME280;61829;53.286;10.434;2022-12-29T05:04:13;99684.59;;;8.37;100.00
73558;BME280;61829;53.286;10.434;2022-12-29T05:06:39;99675.50;;;8.38;100.00
73558;BME280;61829;53.286;10.434;2022-12-29T05:09:05;99669.16;;;8.39;100.00
73558;BME280;61829;53.286;10.434;2022-12-29T05:11:31;99668.28;;;8.38;100.00
73558;BME280;61829;53.286;10.434;2022-12-29T05:13:57;99671.63;;;8.40;100.00
73558;BME280;61829;53.286;10.434;2022-12-29T05:16:23;99680.72;;;8.39;100.00
73558;BME280;61829;53.286;10.434;2022-12-29T05:18:49;99673.47;;;8.40;100.00
73558;BME280;61829;53.286;10.434;2022-12-29T05:21:15;99673.47;;;8.40;100.00
73558;BME280;61829;53.286;10.434;2022-12-29T05:23:41;99682.16;;;8.42;100.00
73558;BME280;61829;53.286;10.434;2022-12-29T05:26:07;99683.81;;;8.43;100.00
73558;BME280;61829;53.286;10.434;2022-12-29T05:28:33;99681.94;;;8.43;100.00
73558;BME280;61829;53.286;10.434;2022-12-29T05:30:59;99686.50;;;8.43;100.00
73558;BME280;61829;53.286;10.434;2022-12-29T05:33:25;99675.56;;;8.44;100.00
73558;BME280;61829;53.286;10.434;2022-12-29T05:35:51;99673.06;;;8.43;100.00
73558;BME280;61829;53.286;10.434;2022-12-29T05:38:17;99675.56;;;8.44;100.00
73558;BME280;61829;53.286;10.434;2022-12-29T05:40:43;99671.84;;;8.45;100.00
73558;BME280;61829;53.286;10.434;2022-12-29T05:43:10;99667.13;;;8.47;100.00
73558;BME280;61829;53.286;10.434;2022-12-29T05:45:36;99683.00;;;8.49;100.00
73558;BME280;61829;53.286;10.434;2022-12-29T05:48:02;99676.81;;;8.48;100.00
73558;BME280;61829;53.286;10.434;2022-12-29T05:50:29;99670.44;;;8.49;100.00
73558;BME280;61829;53.286;10.434;2022-12-29T05:52:55;99669.59;;;8.49;100.00
73558;BME280;61829;53.286;10.434;2022-12-29T05:58:38;99682.19;;;8.48;100.00
73558;BME280;61829;53.286;10.434;2022-12-29T06:01:04;99678.50;;;8.49;100.00
73558;BME280;61829;53.286;10.434;2022-12-29T06:03:31;99682.59;;;8.52;100.00
73558;BME280;61829;53.286;10.434;2022-12-29T06:05:57;99674.56;;;8.52;100.00
73558;BME280;61829;53.286;10.434;2022-12-29T06:08:23;99678.91;;;8.53;100.00
73558;BME280;61829;53.286;10.434;2022-12-29T06:10:49;99669.81;;;8.54;100.00
73558;BME280;61829;53.286;10.434;2022-12-29T06:13:15;99669.00;;;8.53;100.00
73558;BME280;61829;53.286;10.434;2022-12-29T06:15:41;99675.81;;;8.56;100.00
73558;BME280;61829;53.286;10.434;2022-12-29T06:18:08;99674.19;;;8.55;100.00
73558;BME280;61829;53.286;10.434;2022-12-29T06:20:33;99673.16;;;8.56;100.00
73558;BME280;61829;53.286;10.434;2022-12-29T06:23:00;99653.53;;;8.56;100.00
73558;BME280;61829;53.286;10.434;2022-12-29T06:25:26;99663.22;;;8.57;100.00
73558;BME280;61829;53.286;10.434;2022-12-29T06:27:52;99663.44;;;8.55;100.00
73558;BME280;61829;53.286;10.434;2022-12-29T06:30:18;99662.59;;;8.54;100.00
73558;BME280;61829;53.286;10.434;2022-12-29T06:32:44;99651.03;;;8.54;100.00
73558;BME280;61829;53.286;10.434;2022-12-29T06:35:11;99666.13;;;8.55;100.00
73558;BME280;61829;53.286;10.434;2022-12-29T06:37:37;99666.50;;;8.52;100.00
73558;BME280;61829;53.286;10.434;2022-12-29T06:40:03;99669.19;;;8.52;100.00
73558;BME280;61829;53.286;10.434;2022-12-29T06:42:29;99660.13;;;8.53;100.00
73558;BME280;61829;53.286;10.434;2022-12-29T06:44:55;99648.34;;;8.54;100.00
73558;BME280;61829;53.286;10.434;2022-12-29T06:47:24;99644.44;;;8.57;100.00
73558;BME280;61829;53.286;10.434;2022-12-29T06:49:50;99641.56;;;8.58;100.00
73558;BME280;61829;53.286;10.434;2022-12-29T06:52:16;99636.19;;;8.58;100.00
73558;BME280;61829;53.286;10.434;2022-12-29T06:54:42;99643.38;;;8.58;100.00
73558;BME280;61829;53.286;10.434;2022-12-29T06:57:09;99629.97;;;8.58;100.00
73558;BME280;61829;53.286;10.434;2022-12-29T06:59:35;99621.91;;;8.58;100.00
73558;BME280;61829;53.286;10.434;2022-12-29T07:02:01;99619.84;;;8.60;100.00
73558;BME280;61829;53.286;10.434;2022-12-29T07:04:28;99610.78;;;8.61;100.00
73558;BME280;61829;53.286;10.434;2022-12-29T07:06:55;99610.56;;;8.62;100.00
73558;BME280;61829;53.286;10.434;2022-12-29T07:09:20;99605.19;;;8.62;99.87
73558;BME280;61829;53.286;10.434;2022-12-29T07:11:47;99618.44;;;8.64;99.91
73558;BME280;61829;53.286;10.434;2022-12-29T07:14:13;99628.78;;;8.67;99.91
73558;BME280;61829;53.286;10.434;2022-12-29T07:16:39;99624.00;;;8.69;99.33
73558;BME280;61829;53.286;10.434;2022-12-29T07:19:05;99627.13;;;8.72;99.78
73558;BME280;61829;53.286;10.434;2022-12-29T07:21:31;99625.06;;;8.74;99.35
73558;BME280;61829;53.286;10.434;2022-12-29T07:23:57;99632.75;;;8.77;99.71
73558;BME280;61829;53.286;10.434;2022-12-29T07:26:23;99625.28;;;8.80;99.89
73558;BME280;61829;53.286;10.434;2022-12-29T07:28:49;99631.09;;;8.83;99.45
73558;BME280;61829;53.286;10.434;2022-12-29T07:31:23;99645.97;;;8.86;99.69
73558;BME280;61829;53.286;10.434;2022-12-29T07:33:49;99643.09;;;8.87;99.76
73558;BME280;61829;53.286;10.434;2022-12-29T07:36:16;99645.56;;;8.89;99.55
73558;BME280;61829;53.286;10.434;2022-12-29T07:38:43;99647.84;;;8.92;99.31
73558;BME280;61829;53.286;10.434;2022-12-29T07:41:10;99661.06;;;8.93;99.71
73558;BME280;61829;53.286;10.434;2022-12-29T07:43:36;99670.78;;;8.94;100.00
73558;BME280;61829;53.286;10.434;2022-12-29T07:46:02;99675.13;;;8.95;100.00
73558;BME280;61829;53.286;10.434;2022-12-29T07:48:28;99686.06;;;8.94;100.00
73558;BME280;61829;53.286;10.434;2022-12-29T07:50:55;99677.19;;;8.93;100.00
73558;BME280;61829;53.286;10.434;2022-12-29T07:53:21;99679.69;;;8.95;100.00
73558;BME280;61829;53.286;10.434;2022-12-29T07:55:47;99674.31;;;8.95;100.00
73558;BME280;61829;53.286;10.434;2022-12-29T07:58:14;99669.75;;;8.95;100.00
73558;BME280;61829;53.286;10.434;2022-12-29T08:00:40;99660.88;;;8.95;100.00
73558;BME280;61829;53.286;10.434;2022-12-29T08:03:06;99679.88;;;8.93;100.00
73558;BME280;61829;53.286;10.434;2022-12-29T08:05:33;99671.19;;;8.91;100.00
73558;BME280;61829;53.286;10.434;2022-12-29T08:07:59;99691.84;;;8.91;100.00
73558;BME280;61829;53.286;10.434;2022-12-29T08:10:26;99689.16;;;8.91;100.00
73558;BME280;61829;53.286;10.434;2022-12-29T08:12:52;99690.00;;;8.91;100.00
73558;BME280;61829;53.286;10.434;2022-12-29T08:15:18;99692.50;;;8.93;100.00
73558;BME280;61829;53.286;10.434;2022-12-29T08:17:46;99696.00;;;8.93;100.00
73558;BME280;61829;53.286;10.434;2022-12-29T08:20:12;99697.03;;;8.92;100.00
73558;BME280;61829;53.286;10.434;2022-12-29T08:22:39;99708.78;;;8.91;99.42
73558;BME280;61829;53.286;10.434;2022-12-29T08:25:05;99722.88;;;8.93;99.68
73558;BME280;61829;53.286;10.434;2022-12-29T08:27:32;99735.66;;;8.91;99.04
73558;BME280;61829;53.286;10.434;2022-12-29T08:29:57;99730.28;;;8.91;99.47
73558;BME280;61829;53.286;10.434;2022-12-29T08:32:26;99728.66;;;8.90;99.21
73558;BME280;61829;53.286;10.434;2022-12-29T08:34:54;99734.00;;;8.90;99.09
73558;BME280;61829;53.286;10.434;2022-12-29T08:37:20;99736.06;;;8.88;97.81
73558;BME280;61829;53.286;10.434;2022-12-29T08:39:46;99742.47;;;8.87;97.62
73558;BME280;61829;53.286;10.434;2022-12-29T08:42:12;99732.97;;;8.85;96.90
73558;BME280;61829;53.286;10.434;2022-12-29T08:44:38;99733.59;;;8.87;96.56
73558;BME280;61829;53.286;10.434;2022-12-29T08:47:05;99733.59;;;8.87;96.74
73558;BME280;61829;53.286;10.434;2022-12-29T08:49:31;99722.84;;;8.87;96.00
73558;BME280;61829;53.286;10.434;2022-12-29T08:51:59;99721.19;;;8.86;96.19
73558;BME280;61829;53.286;10.434;2022-12-29T08:54:25;99720.34;;;8.85;95.89
73558;BME280;61829;53.286;10.434;2022-12-29T08:56:51;99734.19;;;8.82;95.57
73558;BME280;61829;53.286;10.434;2022-12-29T08:59:19;99734.19;;;8.82;95.34
73558;BME280;61829;53.286;10.434;2022-12-29T09:01:45;99742.25;;;8.82;95.30
73558;BME280;61829;53.286;10.434;2022-12-29T09:04:11;99757.34;;;8.83;95.48
73558;BME280;61829;53.286;10.434;2022-12-29T09:06:39;99749.28;;;8.83;94.71
73558;BME280;61829;53.286;10.434;2022-12-29T09:09:05;99750.31;;;8.82;94.58
73558;BME280;61829;53.286;10.434;2022-12-29T09:11:31;99749.09;;;8.85;94.76
73558;BME280;61829;53.286;10.434;2022-12-29T09:13:57;99737.50;;;8.84;94.40
73558;BME280;61829;53.286;10.434;2022-12-29T09:16:24;99757.97;;;8.85;93.97
73558;BME280;61829;53.286;10.434;2022-12-29T09:18:50;99738.56;;;8.83;92.75
73558;BME280;61829;53.286;10.434;2022-12-29T09:21:16;99748.69;;;8.88;92.56
73558;BME280;61829;53.286;10.434;2022-12-29T09:23:42;99751.59;;;8.93;92.54
73558;BME280;61829;53.286;10.434;2022-12-29T09:26:09;99748.13;;;9.06;92.40
73558;BME280;61829;53.286;10.434;2022-12-29T09:28:35;99745.66;;;9.11;91.13
73558;BME280;61829;53.286;10.434;2022-12-29T09:31:02;99756.63;;;9.16;91.04
73558;BME280;61829;53.286;10.434;2022-12-29T09:33:28;99746.09;;;9.14;90.65
73558;BME280;61829;53.286;10.434;2022-12-29T09:35:56;99748.13;;;9.06;90.48
73558;BME280;61829;53.286;10.434;2022-12-29T09:38:24;99750.44;;;9.09;90.93
73558;BME280;61829;53.286;10.434;2022-12-29T09:40:56;99747.53;;;9.10;91.25
73558;BME280;61829;53.286;10.434;2022-12-29T09:43:46;99754.75;;;9.10;90.64
73558;BME280;61829;53.286;10.434;2022-12-29T09:46:38;99763.25;;;9.13;90.88
73558;BME280;61829;53.286;10.434;2022-12-29T09:51:47;99771.94;;;9.09;91.44
73558;BME280;61829;53.286;10.434;2022-12-29T09:54:36;99783.50;;;9.09;91.52
73558;BME280;61829;53.286;10.434;2022-12-29T09:57:08;99795.47;;;9.07;91.47
73558;BME280;61829;53.286;10.434;2022-12-29T09:59:40;99798.16;;;9.07;91.19
73558;BME280;61829;53.286;10.434;2022-12-29T10:04:48;99798.81;;;9.15;91.53
73558;BME280;61829;53.286;10.434;2022-12-29T10:07:38;99801.94;;;9.19;91.43
73558;BME280;61829;53.286;10.434;2022-12-29T10:12:53;99792.03;;;9.26;90.63
73558;BME280;61829;53.286;10.434;2022-12-29T10:18:20;99764.94;;;9.28;89.83
73558;BME280;61829;53.286;10.434;2022-12-29T10:20:54;99768.91;;;9.32;89.62
73558;BME280;61829;53.286;10.434;2022-12-29T10:23:50;99774.69;;;9.42;88.56
73558;BME280;61829;53.286;10.434;2022-12-29T10:26:20;99785.47;;;9.49;88.58
73558;BME280;61829;53.286;10.434;2022-12-29T10:28:55;99773.50;;;9.51;87.72
73558;BME280;61829;53.286;10.434;2022-12-29T10:31:24;99772.66;;;9.57;86.75
73558;BME280;61829;53.286;10.434;2022-12-29T10:33:56;99773.91;;;9.61;86.52
73558;BME280;61829;53.286;10.434;2022-12-29T10:42:11;99783.03;;;9.67;86.34
73558;BME280;61829;53.286;10.434;2022-12-29T10:44:39;99778.69;;;9.66;85.18
73558;BME280;61829;53.286;10.434;2022-12-29T10:47:17;99777.22;;;9.63;84.96
73558;BME280;61829;53.286;10.434;2022-12-29T10:49:45;99783.03;;;9.60;84.36
73558;BME280;61829;53.286;10.434;2022-12-29T10:52:14;99794.00;;;9.65;84.07
73558;BME280;61829;53.286;10.434;2022-12-29T10:55:03;99795.44;;;9.68;84.00
73558;BME280;61829;53.286;10.434;2022-12-29T10:57:37;99792.94;;;9.73;83.96
73558;BME280;61829;53.286;10.434;2022-12-29T11:03:01;99800.63;;;9.76;82.97
73558;BME280;61829;53.286;10.434;2022-12-29T11:05:41;99801.25;;;9.78;82.37
73558;BME280;61829;53.286;10.434;2022-12-29T11:08:14;99799.38;;;9.79;82.96
73558;BME280;61829;53.286;10.434;2022-12-29T11:10:44;99802.91;;;9.79;83.17
73558;BME280;61829;53.286;10.434;2022-12-29T11:13:19;99800.84;;;9.81;82.64
73558;BME280;61829;53.286;10.434;2022-12-29T11:15:51;99789.25;;;9.81;82.43
73558;BME280;61829;53.286;10.434;2022-12-29T11:21:00;99802.69;;;9.81;81.91
73558;BME280;61829;53.286;10.434;2022-12-29T11:23:36;99797.94;;;9.83;82.41
73558;BME280;61829;53.286;10.434;2022-12-29T11:26:23;99792.34;;;9.84;81.29
73558;BME280;61829;53.286;10.434;2022-12-29T11:31:45;99790.50;;;9.92;80.73
73558;BME280;61829;53.286;10.434;2022-12-29T11:34:23;99784.91;;;9.93;81.62
73558;BME280;61829;53.286;10.434;2022-12-29T11:36:54;99783.25;;;9.99;80.67
73558;BME280;61829;53.286;10.434;2022-12-29T11:39:30;99777.88;;;9.99;80.76
73558;BME280;61829;53.286;10.434;2022-12-29T11:41:59;99770.66;;;9.99;79.72
73558;BME280;61829;53.286;10.434;2022-12-29T11:44:26;99777.44;;;10.02;80.15
73558;BME280;61829;53.286;10.434;2022-12-29T11:46:54;99773.50;;;10.04;79.92
73558;BME280;61829;53.286;10.434;2022-12-29T11:49:23;99777.25;;;10.03;79.99
73558;BME280;61829;53.286;10.434;2022-12-29T11:51:51;99781.81;;;10.03;80.37
73558;BME280;61829;53.286;10.434;2022-12-29T11:56:54;99788.03;;;10.03;80.52
73558;BME280;61829;53.286;10.434;2022-12-29T12:01:49;99778.31;;;10.02;80.88
73558;BME280;61829;53.286;10.434;2022-12-29T12:04:21;99774.97;;;10.00;79.78
73558;BME280;61829;53.286;10.434;2022-12-29T12:06:58;99776.03;;;9.99;79.24
73558;BME280;61829;53.286;10.434;2022-12-29T12:09:31;99784.69;;;10.01;78.78
73558;BME280;61829;53.286;10.434;2022-12-29T12:11:59;99778.06;;;10.04;78.93
73558;BME280;61829;53.286;10.434;2022-12-29T12:14:34;99776.22;;;10.11;78.84
73558;BME280;61829;53.286;10.434;2022-12-29T12:17:18;99779.53;;;10.13;78.14
73558;BME280;61829;53.286;10.434;2022-12-29T12:19:47;99776.41;;;10.16;77.62
73558;BME280;61829;53.286;10.434;2022-12-29T12:22:21;99778.09;;;10.17;76.54
73558;BME280;61829;53.286;10.434;2022-12-29T12:25:04;99769.38;;;10.15;76.04
73558;BME280;61829;53.286;10.434;2022-12-29T12:32:53;99770.63;;;10.26;75.46
73558;BME280;61829;53.286;10.434;2022-12-29T12:43:43;99771.88;;;10.30;72.99
73558;BME280;61829;53.286;10.434;2022-12-29T12:54:23;99777.88;;;10.32;72.87
73558;BME280;61829;53.286;10.434;2022-12-29T13:02:43;99780.56;;;10.32;72.44
73558;BME280;61829;53.286;10.434;2022-12-29T13:05:26;99784.91;;;10.33;72.27
73558;BME280;61829;53.286;10.434;2022-12-29T13:13:54;99804.63;;;10.33;73.22
73558;BME280;61829;53.286;10.434;2022-12-29T13:19:40;99814.53;;;10.26;73.14
73558;BME280;61829;53.286;10.434;2022-12-29T13:25:08;99818.25;;;10.25;73.66
73558;BME280;61829;53.286;10.434;2022-12-29T13:30:30;99818.47;;;10.17;74.28
73558;BME280;61829;53.286;10.434;2022-12-29T13:38:17;99825.06;;;10.21;73.73
73558;BME280;61829;53.286;10.434;2022-12-29T13:40:46;99817.44;;;10.25;74.10
73558;BME280;61829;53.286;10.434;2022-12-29T13:43:15;99827.81;;;10.28;73.47
73558;BME280;61829;53.286;10.434;2022-12-29T13:45:43;99831.13;;;10.30;73.61
73558;BME280;61829;53.286;10.434;2022-12-29T13:48:23;99819.53;;;10.29;73.53
73558;BME280;61829;53.286;10.434;2022-12-29T13:50:56;99824.09;;;10.29;73.43
73558;BME280;61829;53.286;10.434;2022-12-29T13:54:17;99834.03;;;10.28;73.08
73558;BME280;61829;53.286;10.434;2022-12-29T13:56:24;99843.13;;;10.27;72.61
73558;BME280;61829;53.286;10.434;2022-12-29T14:02:26;99852.81;;;10.22;73.36
73558;BME280;61829;53.286;10.434;2022-12-29T14:07:25;99849.94;;;10.17;73.64
73558;BME280;61829;53.286;10.434;2022-12-29T14:09:54;99854.28;;;10.18;73.25
73558;BME280;61829;53.286;10.434;2022-12-29T14:12:39;99869.81;;;10.16;73.97
73558;BME280;61829;53.286;10.434;2022-12-29T14:17:37;99887.00;;;10.15;73.77
73558;BME280;61829;53.286;10.434;2022-12-29T14:20:05;99869.41;;;10.12;74.23
73558;BME280;61829;53.286;10.434;2022-12-29T14:23:35;99878.53;;;10.11;74.88
73558;BME280;61829;53.286;10.434;2022-12-29T14:26:14;99879.53;;;10.10;74.92
73558;BME280;61829;53.286;10.434;2022-12-29T14:28:43;99889.28;;;10.11;75.06
73558;BME280;61829;53.286;10.434;2022-12-29T14:36:40;99892.34;;;10.01;75.59
73558;BME280;61829;53.286;10.434;2022-12-29T14:42:06;99916.56;;;9.95;76.91
73558;BME280;61829;53.286;10.434;2022-12-29T14:47:25;99913.88;;;9.88;77.28
73558;BME280;61829;53.286;10.434;2022-12-29T14:49:53;99940.34;;;9.84;77.90
73558;BME280;61829;53.286;10.434;2022-12-29T14:52:25;99937.22;;;9.81;79.43
73558;BME280;61829;53.286;10.434;2022-12-29T14:58:00;99943.19;;;9.63;79.68
73558;BME280;61829;53.286;10.434;2022-12-29T15:00:30;99965.50;;;9.57;80.13
73558;BME280;61829;53.286;10.434;2022-12-29T15:08:21;99974.50;;;9.42;80.54
73558;BME280;61829;53.286;10.434;2022-12-29T15:11:04;99981.72;;;9.35;80.78
73558;BME280;61829;53.286;10.434;2022-12-29T15:13:40;99989.53;;;9.30;81.01
73558;BME280;61829;53.286;10.434;2022-12-29T15:16:30;99991.38;;;9.23;81.58
73558;BME280;61829;53.286;10.434;2022-12-29T15:18:57;99993.81;;;9.18;81.58
73558;BME280;61829;53.286;10.434;2022-12-29T15:21:32;99995.41;;;9.12;81.83
73558;BME280;61829;53.286;10.434;2022-12-29T15:23:59;100004.44;;;9.05;82.39
73558;BME280;61829;53.286;10.434;2022-12-29T15:26:40;100011.66;;;8.97;83.00
73558;BME280;61829;53.286;10.434;2022-12-29T15:34:42;100017.84;;;8.76;83.63
73558;BME280;61829;53.286;10.434;2022-12-29T15:37:09;100027.34;;;8.72;83.44
73558;BME280;61829;53.286;10.434;2022-12-29T15:39:35;100044.66;;;8.70;83.44
73558;BME280;61829;53.286;10.434;2022-12-29T15:44:42;100034.69;;;8.64;83.71
73558;BME280;61829;53.286;10.434;2022-12-29T15:47:13;100035.69;;;8.63;83.91
73558;BME280;61829;53.286;10.434;2022-12-29T15:49:43;100033.59;;;8.58;83.53
73558;BME280;61829;53.286;10.434;2022-12-29T15:52:10;100037.50;;;8.56;83.19
73558;BME280;61829;53.286;10.434;2022-12-29T15:54:36;100034.56;;;8.50;82.80
73558;BME280;61829;53.286;10.434;2022-12-29T15:57:04;100040.50;;;8.46;83.01